Portada
METAR-TAF:

METAR-TAF

Aeropuertos :

Aeropuerto de Zaragoza

Zaragoza, España

latitud: 41-40N, longitud: 001-01W, altitud: 263 m

Observación

El informe se hizo hace 38 minutos, a las 13:30 UTC
Viento 9 kt del oeste-noroeste, variando entre oeste y noroeste
Temperatura 13°C
Humedad 33%
Presión 1032 hPa
Visibilidad 10 km o más
sin nubes por debajo de 1500 m y sin presencia de cumulonimbus.

METAR: LEZG 031330Z 29009KT 260V320 CAVOK 13/M03 Q1032

Hora: 15:08 (14:08 UTC)

Pronóstico

El informe se hizo hace 3 horas y 8 minutos, a las 11:00 UTC
Pronóstico válido del 03 a las 12 UTC al 04 a las 12 UTC
Viento 8 kt del oeste
Visibilidad 10 km o más
sin nubes por debajo de 1500 m y sin presencia de cumulonimbus.
Evolucionando progresivamente
del 04 a las 04 UTC al 04 a las 06 UTC
Viento 14 kt del oeste-noroeste con ráfagas de 26 kt

TAF: LEZG 031100Z 0312/0412 28008KT CAVOK TX14/0314Z TN02/0407Z BECMG 0404/0406 29014G26KT

Observaciones y pronósticos meteorológicos de más de 4000 aeropuertos (mensajes METAR y TAF).

Los puntos amarillos y rojos representan las estaciones disponibles.

Ponga el ratón en el punto deseado para ver el nombre de la estación.

Haga clic para ver las observaciones y los pronósticos meteorológicos.

Para cambiar el mapa : haga clic en los botones verdes con una cruz de color negro para hacer un zoom, en el botón verde con un guión para alejar o en las flechas verdes para mapas adyacentes.


METAR-TAF: